sensor_id;sensor_type;location;lat;lon;timestamp;temperature;humidity
13978;DHT22;7063;49.260;8.636;2023-02-01T05:06:40;5.60;99.90
13978;DHT22;7063;49.260;8.636;2023-02-01T05:09:05;5.80;99.90
13978;DHT22;7063;49.260;8.636;2023-02-01T05:11:31;5.80;99.90
13978;DHT22;7063;49.260;8.636;2023-02-01T05:14:15;5.80;99.90
13978;DHT22;7063;49.260;8.636;2023-02-01T05:16:40;5.80;99.90
13978;DHT22;7063;49.260;8.636;2023-02-01T05:19:06;5.80;99.90
13978;DHT22;7063;49.260;8.636;2023-02-01T05:21:31;5.80;99.90
13978;DHT22;7063;49.260;8.636;2023-02-01T05:23:57;5.80;99.90
13978;DHT22;7063;49.260;8.636;2023-02-01T05:26:35;5.80;99.90
13978;DHT22;7063;49.260;8.636;2023-02-01T05:29:01;5.80;99.90
13978;DHT22;7063;49.260;8.636;2023-02-01T05:31:27;5.80;99.90
13978;DHT22;7063;49.260;8.636;2023-02-01T05:33:53;5.80;99.90
13978;DHT22;7063;49.260;8.636;2023-02-01T05:36:18;5.80;99.90
13978;DHT22;7063;49.260;8.636;2023-02-01T05:38:44;5.80;99.90
13978;DHT22;7063;49.260;8.636;2023-02-01T05:41:09;5.80;99.90
13978;DHT22;7063;49.260;8.636;2023-02-01T05:43:35;5.90;99.90
13978;DHT22;7063;49.260;8.636;2023-02-01T05:46:01;5.80;99.90
13978;DHT22;7063;49.260;8.636;2023-02-01T05:48:26;5.90;99.90
13978;DHT22;7063;49.260;8.636;2023-02-01T05:50:52;5.80;99.90
13978;DHT22;7063;49.260;8.636;2023-02-01T05:53:18;5.80;99.90
13978;DHT22;7063;49.260;8.636;2023-02-01T05:55:43;5.80;99.90
13978;DHT22;7063;49.260;8.636;2023-02-01T05:58:09;5.70;99.90
13978;DHT22;7063;49.260;8.636;2023-02-01T06:00:35;5.70;99.90
13978;DHT22;7063;49.260;8.636;2023-02-01T06:03:00;5.70;99.90
13978;DHT22;7063;49.260;8.636;2023-02-01T06:05:26;5.60;99.90
13978;DHT22;7063;49.260;8.636;2023-02-01T06:07:52;5.50;99.90
13978;DHT22;7063;49.260;8.636;2023-02-01T06:10:18;5.50;99.90
13978;DHT22;7063;49.260;8.636;2023-02-01T06:12:44;5.50;99.90
13978;DHT22;7063;49.260;8.636;2023-02-01T06:15:11;5.50;99.90
13978;DHT22;7063;49.260;8.636;2023-02-01T06:17:37;5.40;99.90
13978;DHT22;7063;49.260;8.636;2023-02-01T06:20:04;5.50;99.90
13978;DHT22;7063;49.260;8.636;2023-02-01T06:22:32;5.40;99.90
13978;DHT22;7063;49.260;8.636;2023-02-01T06:24:57;5.40;99.90
13978;DHT22;7063;49.260;8.636;2023-02-01T06:27:24;5.40;99.90
13978;DHT22;7063;49.260;8.636;2023-02-01T06:29:50;5.50;99.90
13978;DHT22;7063;49.260;8.636;2023-02-01T06:32:15;5.40;99.90
13978;DHT22;7063;49.260;8.636;2023-02-01T06:34:42;5.40;99.90
13978;DHT22;7063;49.260;8.636;2023-02-01T06:37:08;5.50;99.90
13978;DHT22;7063;49.260;8.636;2023-02-01T06:39:34;5.50;99.90
13978;DHT22;7063;49.260;8.636;2023-02-01T06:41:59;5.50;99.90
13978;DHT22;7063;49.260;8.636;2023-02-01T06:44:25;5.50;99.90
13978;DHT22;7063;49.260;8.636;2023-02-01T06:46:50;5.60;99.90
13978;DHT22;7063;49.260;8.636;2023-02-01T06:49:16;5.60;99.90
13978;DHT22;7063;49.260;8.636;2023-02-01T06:51:41;5.60;99.90
13978;DHT22;7063;49.260;8.636;2023-02-01T06:54:07;5.60;99.90
13978;DHT22;7063;49.260;8.636;2023-02-01T06:56:32;5.60;99.90
13978;DHT22;7063;49.260;8.636;2023-02-01T06:58:58;5.60;99.90
13978;DHT22;7063;49.260;8.636;2023-02-01T07:01:24;5.60;99.90
13978;DHT22;7063;49.260;8.636;2023-02-01T07:03:50;5.60;99.90
13978;DHT22;7063;49.260;8.636;2023-02-01T07:06:17;5.60;99.90
13978;DHT22;7063;49.260;8.636;2023-02-01T07:08:42;5.60;99.90
13978;DHT22;7063;49.260;8.636;2023-02-01T07:11:11;5.60;99.90
13978;DHT22;7063;49.260;8.636;2023-02-01T07:13:37;5.60;99.90
13978;DHT22;7063;49.260;8.636;2023-02-01T07:16:05;5.60;99.90
13978;DHT22;7063;49.260;8.636;2023-02-01T07:18:32;5.60;99.90
13978;DHT22;7063;49.260;8.636;2023-02-01T07:20:59;5.60;99.90
13978;DHT22;7063;49.260;8.636;2023-02-01T07:23:25;5.60;99.90
13978;DHT22;7063;49.260;8.636;2023-02-01T07:25:59;5.60;99.90
13978;DHT22;7063;49.260;8.636;2023-02-01T07:28:25;5.60;99.90
13978;DHT22;7063;49.260;8.636;2023-02-01T07:30:51;5.60;99.90
13978;DHT22;7063;49.260;8.636;2023-02-01T07:33:19;5.70;99.90
13978;DHT22;7063;49.260;8.636;2023-02-01T07:35:45;5.70;99.90
13978;DHT22;7063;49.260;8.636;2023-02-01T07:38:11;5.80;99.90
13978;DHT22;7063;49.260;8.636;2023-02-01T07:40:36;5.80;99.90
13978;DHT22;7063;49.260;8.636;2023-02-01T07:43:02;5.90;99.90
13978;DHT22;7063;49.260;8.636;2023-02-01T07:45:28;5.90;99.90
13978;DHT22;7063;49.260;8.636;2023-02-01T07:47:53;5.90;99.90
13978;DHT22;7063;49.260;8.636;2023-02-01T07:50:19;5.90;99.90
13978;DHT22;7063;49.260;8.636;2023-02-01T07:52:45;5.90;99.90
13978;DHT22;7063;49.260;8.636;2023-02-01T07:55:10;5.90;99.90
13978;DHT22;7063;49.260;8.636;2023-02-01T07:57:36;5.90;99.90
13978;DHT22;7063;49.260;8.636;2023-02-01T08:00:02;5.90;99.90
13978;DHT22;7063;49.260;8.636;2023-02-01T08:02:47;6.00;99.90
13978;DHT22;7063;49.260;8.636;2023-02-01T08:05:12;5.90;99.90
13978;DHT22;7063;49.260;8.636;2023-02-01T08:07:38;5.90;99.90
13978;DHT22;7063;49.260;8.636;2023-02-01T08:10:04;5.90;99.90
13978;DHT22;7063;49.260;8.636;2023-02-01T08:12:30;5.90;99.90
13978;DHT22;7063;49.260;8.636;2023-02-01T08:14:56;5.80;99.90
13978;DHT22;7063;49.260;8.636;2023-02-01T08:17:22;5.90;99.90
13978;DHT22;7063;49.260;8.636;2023-02-01T08:19:47;5.90;99.90
13978;DHT22;7063;49.260;8.636;2023-02-01T08:22:13;5.90;99.90
13978;DHT22;7063;49.260;8.636;2023-02-01T08:24:38;5.80;99.90
13978;DHT22;7063;49.260;8.636;2023-02-01T08:27:06;5.80;99.90
13978;DHT22;7063;49.260;8.636;2023-02-01T08:29:31;5.90;99.90
13978;DHT22;7063;49.260;8.636;2023-02-01T08:31:57;5.90;99.90
13978;DHT22;7063;49.260;8.636;2023-02-01T08:34:23;6.00;99.90
13978;DHT22;7063;49.260;8.636;2023-02-01T08:36:49;6.10;99.90
13978;DHT22;7063;49.260;8.636;2023-02-01T08:39:14;6.10;99.90
13978;DHT22;7063;49.260;8.636;2023-02-01T08:41:40;6.20;99.90
